Portada
METAR-TAF:

METAR-TAF

Aeroports :

Changsha, Xina

latitud: 28-11N, longitud: 113-13E, altitud: 66 m

Observació

L'informe es va fer fa 1 hora i 8 minuts, a les 02:00 UTC
Vent 8 kt del Sud
Temperatura 31°C
Humitat 75%
Pressió 1003 hPa
Visibilitat 10 km o més
sense núvols per sota de 1500 mi sense presència de cumulonimbus.

METAR: ZGHA 050200Z 18004MPS CAVOK 31/26 Q1003 NOSIG

Hora: 11:08 (03:08 UTC)

Pronòstic

L'informe es va fer fa 6 hores i 5 minuts, a les 21:03 UTC
Pronòstic vàlid del 05 a les 00 UTC al 05 a les 24 UTC
Vent 14 kt del Sud
Visibilitat: 6000 m
Núvols disperses a una alçada de 4000 ft
Evolucionant progressivament
l' 05 a les 10 UTC al 05 a les 11 UTC
Vent 4 kt del Sud

TAF: ZGHA 042103Z 0500/0524 18007MPS 6000 SCT040 TX34/0507Z TN26/0522Z BECMG 0510/0511 18002MPS

Observacions i pronòstics meteorològics de més de 4000 aeroports (METAR i TAF).

Les estacions disponibles són els punts grocs i vermells al mapa.

Posi el ratolí al punt desitjat per veure el nom de l'estació.

Feu clic per veure les observacions i els pronòstics meteorològics.

Per canviar el mapa: feu clic els botons verds amb una creu de color negre per apropar; al botó verd amb un guió per allunyar la imatge; o en les fletxes verdes per a mapes adjacents.


METAR-TAF: